ADDS METAR Data INFO
IDs: Format: Raw Decoded Include TAF

Data at: 0026 UTC 17 Dec 2017

K3LF 170015Z AUTO 16008KT 10SM CLR 07/M01 A3001 RMK AO2 T00701011
K3LF 162355Z AUTO 17010KT 10SM CLR 07/M01 A3000 RMK AO2 T00731010 10142 20073
K3LF 162335Z AUTO 17012KT 10SM CLR 08/M01 A3000 RMK AO2 T00771008
K3LF 162315Z AUTO 17012KT 10SM CLR 08/M01 A2999 RMK AO2 T00841010
K3LF 162255Z AUTO 17011KT 10SM CLR 09/M01 A2998 RMK AO2 T00911010
K3LF 162235Z AUTO 18011KT 10SM CLR 10/M01 A2997 RMK AO2 T00981011
K3LF 162215Z AUTO 17007KT 10SM CLR 11/M01 A2996 RMK AO2 T01081011
K3LF 162155Z AUTO 19010KT 10SM CLR 13/M01 A2996 RMK AO2 T01301011
K3LF 162135Z AUTO 20010KT 10SM CLR 14/M01 A2996 RMK AO2 T01381012
K3LF 162115Z AUTO 20012G15KT 10SM CLR 14/M01 A2995 RMK AO2 T01411015
K3LF 162055Z AUTO 20011G15KT 10SM CLR 14/M01 A2995 RMK AO2 T01411014
K3LF 162035Z AUTO 20014G17KT 10SM CLR 14/M01 A2995 RMK AO2 T01401014
K3LF 162015Z AUTO 20014KT 10SM CLR 14/M02 A2995 RMK AO2 T01361017
K3LF 161955Z AUTO 19014KT 10SM CLR 13/M01 A2994 RMK AO2 T01341014
K3LF 161935Z AUTO 20014G19KT 10SM CLR 13/M01 A2994 RMK AO2 T01311015
K3LF 161915Z AUTO 20015KT 10SM CLR 13/M01 A2994 RMK AO2 T01261015
K3LF 161855Z AUTO 19013KT 10SM CLR 12/M01 A2995 RMK AO2 T01211015
K3LF 161835Z AUTO 19016KT 10SM CLR 12/M02 A2996 RMK AO2 T01151016
K3LF 161815Z AUTO 21014KT 10SM CLR 11/M02 A2996 RMK AO2 T01071020
K3LF 161755Z AUTO 21014G19KT 10SM CLR 10/M02 A2997 RMK AO2 T01011021 10102 21022
K3LF 161735Z AUTO 21014KT 10SM CLR 10/M02 A2997 RMK AO2 T00961020
K3LF 161715Z AUTO 21015KT 10SM CLR 09/M02 A2998 RMK AO2 T00901022
K3LF 161655Z AUTO 21014G22KT 10SM CLR 08/M02 A2998 RMK AO2 T00811024
K3LF 161635Z AUTO 20014G18KT 10SM CLR 07/M02 A2999 RMK AO2 T00701020
K3LF 161615Z AUTO 20013KT 10SM CLR 06/M02 A3000 RMK AO2 T00561021
K3LF 161555Z AUTO 20016KT 10SM CLR 05/M02 A3000 RMK AO2 T00461023
K3LF 161535Z AUTO 20017G21KT 10SM CLR 04/M02 A3000 RMK AO2 T00371025
K3LF 161515Z AUTO 19015KT 10SM CLR 03/M03 A3000 RMK AO2 T00261026
K3LF 161455Z AUTO 19014KT 10SM CLR 02/M03 A2999 RMK AO2 T00201027
K3LF 161435Z AUTO 19015KT 10SM CLR 01/M03 A2999 RMK AO2 T00121030
K3LF 161415Z AUTO 19011KT 10SM CLR 01/M03 A2998 RMK AO2 T00051031
K3LF 161355Z AUTO 18010KT 10SM CLR M01/M03 A2998 RMK AO2 T10071035
K3LF 161335Z AUTO 18010KT 10SM CLR M01/M04 A2998 RMK AO2 T10151037
K3LF 161315Z AUTO 18010KT 10SM CLR M02/M04 A2998 RMK AO2 T10211041
K3LF 161255Z AUTO 17008KT 10SM CLR M02/M04 A2998 RMK AO2 T10211042
K3LF 161235Z AUTO 17007KT 10SM CLR M02/M04 A2998 RMK AO2 T10201042
K3LF 161215Z AUTO 17007KT 10SM CLR M02/M04 A2998 RMK AO2 T10211043
K3LF 161155Z AUTO 17008KT 10SM CLR M02/M04 A2997 RMK AO2 T10201043 11011 21025
K3LF 161135Z AUTO 18007KT 10SM CLR M02/M04 A2997 RMK AO2 T10171042
K3LF 161115Z AUTO 19007KT 10SM CLR M01/M04 A2997 RMK AO2 T10131041
K3LF 161055Z AUTO 18010KT 10SM CLR M01/M04 A2996 RMK AO2 T10131041
K3LF 161035Z AUTO 19010KT 10SM CLR M02/M04 A2997 RMK AO2 T10201043
K3LF 161015Z AUTO 19009KT 10SM CLR M02/M04 A2998 RMK AO2 T10201045
K3LF 160955Z AUTO 18008KT 10SM CLR M02/M05 A2998 RMK AO2 T10231046
K3LF 160935Z AUTO 19009KT 10SM CLR M02/M04 A2999 RMK AO2 T10201045
K3LF 160915Z AUTO 18009KT 10SM CLR M02/M05 A2999 RMK AO2 T10241046
K3LF 160855Z AUTO 18007KT 10SM CLR M02/M05 A2999 RMK AO2 T10211046
K3LF 160835Z AUTO 17008KT 10SM CLR M02/M05 A3000 RMK AO2 T10231046
K3LF 160815Z AUTO 17007KT 10SM CLR M02/M05 A3001 RMK AO2 T10221047
K3LF 160755Z AUTO 17008KT 10SM CLR M02/M05 A3001 RMK AO2 T10231048
K3LF 160735Z AUTO 17007KT 10SM CLR M02/M05 A3001 RMK AO2 T10231048
K3LF 160715Z AUTO 18007KT 10SM CLR M02/M05 A3002 RMK AO2 T10251051
K3LF 160655Z AUTO 18008KT 10SM CLR M02/M05 A3001 RMK AO2 T10161050
K3LF 160635Z AUTO 18008KT 10SM CLR M02/M05 A3002 RMK AO2 T10171051
K3LF 160615Z AUTO 19007KT 10SM CLR M02/M05 A3002 RMK AO2 T10161053
K3LF 160555Z AUTO 18008KT 10SM CLR M02/M05 A3002 RMK AO2 T10201055 11013 21027 400501035
K3LF 160535Z AUTO 19008KT 10SM CLR M02/M06 A3003 RMK AO2 T10211056
K3LF 160515Z AUTO 19007KT 10SM CLR M02/M06 A3003 RMK AO2 T10211058
K3LF 160455Z AUTO 18007KT 10SM CLR M02/M06 A3003 RMK AO2 T10161057
K3LF 160435Z AUTO 18008KT 10SM CLR M02/M06 A3004 RMK AO2 T10161056
K3LF 160415Z AUTO 18007KT 10SM CLR M02/M06 A3004 RMK AO2 T10251061
K3LF 160355Z AUTO 19007KT 10SM CLR M02/M06 A3003 RMK AO2 T10171060
K3LF 160335Z AUTO 19005KT 10SM CLR M02/M06 A3004 RMK AO2 T10201062
K3LF 160315Z AUTO 19007KT 10SM CLR M02/M06 A3004 RMK AO2 T10211064
K3LF 160255Z AUTO 19007KT 10SM CLR M01/M06 A3003 RMK AO2 T10151064
K3LF 160235Z AUTO 19007KT 10SM CLR M01/M06 A3004 RMK AO2 T10151065
K3LF 160215Z AUTO 19007KT 10SM CLR M02/M07 A3004 RMK AO2 T10161067
K3LF 160155Z AUTO 19009KT 10SM CLR M02/M07 A3004 RMK AO2 T10201069
K3LF 160135Z AUTO 20008KT 10SM CLR M02/M07 A3005 RMK AO2 T10251071
K3LF 160115Z AUTO 19007KT 10SM CLR M02/M07 A3005 RMK AO2 T10241071
K3LF 160055Z AUTO 20007KT 10SM CLR M02/M07 A3004 RMK AO2 T10211070
K3LF 160035Z AUTO 19008KT 10SM CLR M02/M07 A3005 RMK AO2 T10211072
K3LF 160015Z AUTO 20008KT 10SM CLR M02/M07 A3005 RMK AO2 T10171073
K3LF 152355Z AUTO 20007KT 10SM CLR M01/M07 A3005 RMK AO2 T10151071 10050 21015
K3LF 152335Z AUTO 21006KT 10SM CLR M01/M07 A3004 RMK AO2 T10071071
K3LF 152315Z AUTO 22006KT 10SM CLR 00/M06 A3004 RMK AO2 T00041063
K3LF 152255Z AUTO 23006KT 10SM CLR 02/M06 A3003 RMK AO2 T00231060
K3LF 152235Z AUTO 23007KT 10SM CLR 03/M06 A3003 RMK AO2 T00341060
K3LF 152215Z AUTO 23010KT 10SM SCT055 04/M06 A3004 RMK AO2 T00401058
K3LF 152155Z AUTO 25011G14KT 10SM OVC055 05/M06 A3004 RMK AO2 T00491056
K3LF 152135Z AUTO 25011KT 10SM OVC055 05/M06 A3003 RMK AO2 T00461056
K3LF 152115Z AUTO 26010KT 10SM OVC055 04/M06 A3003 RMK AO2 T00421057
K3LF 152055Z AUTO 27010G15KT 10SM BKN055 04/M06 A3004 RMK AO2 T00421058
K3LF 152035Z AUTO 26012KT 10SM CLR 05/M06 A3004 RMK AO2 T00451058
K3LF 152015Z AUTO 24010G15KT 10SM CLR 05/M06 A3003 RMK AO2 T00471057
K3LF 151955Z AUTO 28008KT 10SM CLR 05/M05 A3004 RMK AO2 T00461055
K3LF 151935Z AUTO 28012KT 10SM CLR 05/M05 A3004 RMK AO2 T00451054
K3LF 151915Z AUTO 28011G17KT 10SM CLR 04/M05 A3004 RMK AO2 T00411054
K3LF 151855Z AUTO 27006G14KT 10SM SCT037 04/M05 A3004 RMK AO2 T00371049
K3LF 151835Z AUTO 30008KT 10SM SCT038 03/M05 A3005 RMK AO2 T00331047
K3LF 151815Z AUTO 29012KT 10SM BKN034 BKN039 03/M04 A3006 RMK AO2 T00341045
K3LF 151755Z AUTO 31012G17KT 10SM BKN034 OVC039 03/M05 A3007 RMK AO2 T00261046 10028 21026
K3LF 151735Z AUTO 29014KT 10SM BKN032 OVC041 02/M05 A3007 RMK AO2 T00221049
K3LF 151715Z AUTO 26010KT 10SM SCT034 SCT042 BKN055 03/M04 A3007 RMK AO2 T00251039
K3LF 151655Z AUTO 29011KT 10SM OVC055 02/M04 A3008 RMK AO2 T00221038
K3LF 151635Z AUTO 28012KT 10SM SCT025 OVC055 02/M04 A3008 RMK AO2 T00181038
K3LF 151615Z AUTO 29011KT 10SM BKN025 OVC055 02/M04 A3008 RMK AO2 T00151038
K3LF 151555Z AUTO 29011KT 10SM BKN025 BKN034 OVC060 01/M04 A3009 RMK AO2 T00111039
K3LF 151535Z AUTO 29009KT 10SM SCT023 BKN032 OVC060 01/M04 A3008 RMK AO2 T00081041
K3LF 151515Z AUTO 27008KT 10SM SCT023 BKN032 OVC060 00/M04 A3008 RMK AO2 T00031043
K3LF 151455Z AUTO 27008KT 10SM SCT023 BKN030 OVC060 00/M05 A3008 RMK AO2 T00001046
K3LF 151435Z AUTO 26009KT 10SM BKN030 OVC039 00/M05 A3007 RMK AO2 T10051048
K3LF 151415Z AUTO 24008KT 10SM BKN039 OVC055 M01/M05 A3007 RMK AO2 T10091050
K3LF 151355Z AUTO 24009KT 10SM SCT049 OVC055 M01/M05 A3007 RMK AO2 T10111052
K3LF 151335Z AUTO 25009KT 10SM BKN047 OVC055 M01/M05 A3007 RMK AO2 T10151054
K3LF 151315Z AUTO 23007KT 10SM OVC047 M02/M05 A3007 RMK AO2 T10161055
K3LF 151255Z AUTO 24007KT 10SM OVC049 M02/M06 A3007 RMK AO2 T10181058
K3LF 151235Z AUTO 24007KT 10SM OVC049 M02/M06 A3008 RMK AO2 T10201060